createdAt,value
2022-12-31T00:00:25.065Z,95923.38
2022-12-31T00:02:52.779Z,95927.31
2022-12-31T00:05:20.429Z,95931.19
2022-12-31T00:07:48.065Z,95924.91
2022-12-31T00:10:15.766Z,95932.47
2022-12-31T00:12:44.763Z,95876.22
2022-12-31T00:15:12.533Z,95927.97
2022-12-31T00:17:40.137Z,95932.81
2022-12-31T00:20:08.875Z,95920.47
2022-12-31T00:22:36.512Z,95923.72
2022-12-31T00:25:04.749Z,95918.28
2022-12-31T00:27:32.678Z,95876.66
2022-12-31T00:30:04.632Z,95920.31
2022-12-31T00:32:32.821Z,95917.47
2022-12-31T00:35:00.517Z,95925.41
2022-12-31T00:37:28.212Z,95915.78
2022-12-31T00:39:55.847Z,95921.22
2022-12-31T00:42:23.505Z,95927.78
2022-12-31T00:44:51.130Z,95930.66
2022-12-31T00:47:20.135Z,95928.19
2022-12-31T00:49:47.774Z,95941.38
2022-12-31T00:52:16.825Z,95949.19
2022-12-31T00:54:44.445Z,95963.25
2022-12-31T00:57:12.131Z,95960.59
2022-12-31T00:59:39.779Z,95968.69
2022-12-31T01:02:07.617Z,95966.47
2022-12-31T01:04:37.022Z,95962.28
2022-12-31T01:07:04.690Z,95970.50
2022-12-31T01:09:32.321Z,95966.94
2022-12-31T01:11:59.957Z,95978.34
2022-12-31T01:14:27.618Z,95976.53
2022-12-31T01:16:55.474Z,95979.31
2022-12-31T01:19:25.077Z,95989.13
2022-12-31T01:21:55.254Z,95999.75
2022-12-31T01:24:23.294Z,95998.75
2022-12-31T01:26:51.392Z,96000.03
2022-12-31T01:29:19.305Z,95982.09
2022-12-31T01:31:46.991Z,95984.50
2022-12-31T01:34:14.697Z,96011.53
2022-12-31T01:36:42.454Z,96020.13
2022-12-31T01:39:12.505Z,95964.06
2022-12-31T01:41:42.407Z,96023.97
2022-12-31T01:44:59.121Z,96032.72
2022-12-31T01:47:35.481Z,96025.47
2022-12-31T01:50:09.291Z,96028.41
2022-12-31T01:52:40.136Z,96019.59
2022-12-31T01:55:15.888Z,96026.56
2022-12-31T01:57:44.911Z,96032.13
2022-12-31T02:00:13.250Z,96008.38
2022-12-31T02:02:41.152Z,96025.47
2022-12-31T02:05:17.771Z,96031.47
2022-12-31T02:07:46.014Z,96027.63
2022-12-31T02:10:14.971Z,96005.66
2022-12-31T02:12:42.838Z,96027.91
2022-12-31T02:15:11.031Z,96024.28
2022-12-31T02:17:48.356Z,96001.13
2022-12-31T02:21:04.872Z,96017.00
2022-12-31T02:23:54.229Z,96022.34
2022-12-31T02:26:41.525Z,96021.66
2022-12-31T02:29:39.813Z,96006.03
2022-12-31T02:32:14.915Z,96014.59
2022-12-31T02:34:55.284Z,96011.94
2022-12-31T02:37:25.955Z,95997.53
2022-12-31T02:39:53.940Z,96012.72
2022-12-31T02:42:21.562Z,96014.03
2022-12-31T02:44:49.208Z,96028.41
2022-12-31T02:47:29.242Z,96019.66
2022-12-31T02:50:14.366Z,96018.19
2022-12-31T02:52:51.606Z,96021.75
2022-12-31T02:55:31.256Z,96013.72
2022-12-31T02:58:09.047Z,96030.41
2022-12-31T03:00:59.629Z,96024.69
2022-12-31T03:03:29.387Z,96032.44
2022-12-31T03:05:58.462Z,96036.28
2022-12-31T03:08:27.792Z,96030.81
2022-12-31T03:10:57.752Z,96034.91
2022-12-31T03:13:24.480Z,96035.25
2022-12-31T03:15:52.239Z,96034.72
2022-12-31T03:18:40.858Z,96043.19
2022-12-31T03:21:32.532Z,96033.94
2022-12-31T03:24:17.572Z,96045.91
2022-12-31T03:26:45.197Z,96042.56
2022-12-31T03:29:12.846Z,96046.88
2022-12-31T03:31:40.817Z,96037.84
2022-12-31T03:34:08.535Z,96053.56
2022-12-31T03:36:37.484Z,96033.81
2022-12-31T03:39:05.711Z,96071.31
2022-12-31T03:41:33.294Z,96066.59
2022-12-31T03:44:00.889Z,96075.78
2022-12-31T03:46:28.481Z,96066.81
2022-12-31T03:48:56.189Z,96082.53
2022-12-31T03:51:23.784Z,96084.66
2022-12-31T03:53:52.737Z,96077.50
2022-12-31T03:56:25.505Z,96079.50
2022-12-31T03:58:59.310Z,96068.97
2022-12-31T04:01:30.464Z,96065.75
2022-12-31T04:04:04.882Z,96084.44
2022-12-31T04:06:39.001Z,96082.06
2022-12-31T04:09:12.394Z,96078.91
2022-12-31T04:11:52.234Z,96079.69
2022-12-31T04:14:32.748Z,96080.00
2022-12-31T04:17:06.043Z,96085.66
2022-12-31T04:19:38.467Z,96086.75
2022-12-31T04:22:09.721Z,96094.50
2022-12-31T04:24:39.048Z,96099.09
2022-12-31T04:27:07.945Z,96104.22
2022-12-31T04:29:35.814Z,96108.56
2022-12-31T04:32:04.135Z,96111.50
2022-12-31T04:34:32.454Z,96072.44
2022-12-31T04:37:00.521Z,96108.56
2022-12-31T04:39:28.330Z,96081.72
2022-12-31T04:41:57.369Z,96113.28
2022-12-31T04:44:25.110Z,96108.44
2022-12-31T04:46:52.910Z,96108.00
2022-12-31T04:49:20.722Z,96078.38
2022-12-31T04:51:48.569Z,96110.16
2022-12-31T04:54:16.235Z,96092.66
2022-12-31T04:56:43.940Z,96123.59
2022-12-31T04:59:12.999Z,96119.56
2022-12-31T05:01:40.803Z,96110.72
2022-12-31T05:04:08.559Z,96021.06
2022-12-31T05:06:36.218Z,96116.03
2022-12-31T05:09:03.906Z,96116.63
2022-12-31T05:11:31.647Z,96101.09
2022-12-31T05:13:59.299Z,96125.34
2022-12-31T05:16:28.355Z,96125.22
2022-12-31T05:18:56.054Z,96121.81
2022-12-31T05:21:23.725Z,96110.31
2022-12-31T05:23:51.392Z,96127.03
2022-12-31T05:26:19.220Z,96131.53
2022-12-31T05:28:46.831Z,96152.56
2022-12-31T05:31:14.920Z,96139.00
2022-12-31T05:33:43.976Z,96134.50
2022-12-31T05:36:11.615Z,96141.94
2022-12-31T05:38:39.347Z,96141.38
2022-12-31T05:41:09.169Z,96077.22
2022-12-31T05:43:36.857Z,96148.03
2022-12-31T05:46:05.716Z,96130.75
2022-12-31T05:48:33.426Z,96125.47
2022-12-31T05:51:02.674Z,96123.69
2022-12-31T05:53:30.341Z,96088.31
2022-12-31T05:55:58.050Z,96118.94
2022-12-31T05:58:26.686Z,96125.59
2022-12-31T06:00:54.695Z,96034.66
2022-12-31T06:03:22.478Z,96129.28
2022-12-31T06:05:50.797Z,96105.47
2022-12-31T06:08:19.855Z,96107.03
2022-12-31T06:10:48.264Z,96138.84
2022-12-31T06:13:15.904Z,96145.84
2022-12-31T06:15:43.592Z,96145.03
2022-12-31T06:18:11.281Z,96146.75
2022-12-31T06:20:39.380Z,96146.56
2022-12-31T06:23:07.414Z,96156.50
2022-12-31T06:25:37.966Z,96154.03
2022-12-31T06:28:06.542Z,96093.34
2022-12-31T06:30:34.263Z,96116.75
2022-12-31T06:33:01.958Z,96160.81
2022-12-31T06:35:29.619Z,96107.22
2022-12-31T06:37:57.301Z,96164.50
2022-12-31T06:40:25.409Z,96170.25
2022-12-31T06:42:59.866Z,96173.16
2022-12-31T06:45:28.223Z,96175.66
2022-12-31T06:47:55.912Z,96168.31
2022-12-31T06:50:23.564Z,96183.66
2022-12-31T06:52:51.254Z,96081.91
2022-12-31T06:55:19.634Z,96135.03
2022-12-31T06:57:47.807Z,96136.50
2022-12-31T07:00:18.226Z,96158.25
2022-12-31T07:03:17.567Z,96168.47
2022-12-31T07:05:49.748Z,96150.72
2022-12-31T07:08:38.682Z,96179.84
2022-12-31T07:11:12.975Z,96183.13
2022-12-31T07:13:55.290Z,96185.25
2022-12-31T07:16:36.635Z,96170.16
2022-12-31T07:19:16.555Z,96178.63
2022-12-31T07:21:46.018Z,96163.44
2022-12-31T07:24:14.836Z,96186.19
2022-12-31T07:26:57.249Z,96105.78
2022-12-31T07:29:32.473Z,96200.28
2022-12-31T07:32:11.917Z,96206.94
2022-12-31T07:34:47.787Z,96206.16
2022-12-31T07:37:25.485Z,96067.94
2022-12-31T07:40:01.846Z,96212.84
2022-12-31T07:42:36.538Z,96215.78
2022-12-31T07:45:13.323Z,96220.06
2022-12-31T07:47:42.960Z,96242.56
2022-12-31T07:50:15.579Z,96225.13
2022-12-31T07:52:44.017Z,96153.06
2022-12-31T07:55:11.867Z,96221.16
2022-12-31T07:57:52.460Z,96243.31
2022-12-31T08:00:20.859Z,96214.91
2022-12-31T08:03:04.771Z,96171.25
2022-12-31T08:05:39.762Z,96234.38
2022-12-31T08:08:21.474Z,96246.97
2022-12-31T08:10:59.249Z,96241.47
2022-12-31T08:13:32.491Z,96160.63
2022-12-31T08:16:00.781Z,96258.38
2022-12-31T08:18:30.472Z,96251.97
2022-12-31T08:21:10.335Z,96265.13
2022-12-31T08:23:45.122Z,96259.75
2022-12-31T08:26:24.517Z,96254.78
2022-12-31T08:29:02.504Z,96254.78
2022-12-31T08:31:37.866Z,96249.13
2022-12-31T08:34:13.100Z,96105.50
2022-12-31T08:36:51.442Z,96244.19
2022-12-31T08:39:31.719Z,96238.53
2022-12-31T08:42:01.219Z,96241.94
2022-12-31T08:44:37.482Z,96251.25
2022-12-31T08:47:17.730Z,96229.50
2022-12-31T08:49:47.677Z,96156.94
2022-12-31T08:52:19.982Z,96239.28
2022-12-31T08:54:48.177Z,96210.19
2022-12-31T08:57:27.908Z,96243.94
2022-12-31T09:00:05.506Z,96233.69
2022-12-31T09:03:08.537Z,96243.72
2022-12-31T09:05:46.866Z,96251.47
2022-12-31T09:08:22.189Z,96257.25
2022-12-31T09:10:59.431Z,96254.75
2022-12-31T09:13:38.831Z,96162.34
2022-12-31T09:16:15.108Z,96257.09
2022-12-31T09:18:44.527Z,96257.88
2022-12-31T09:21:16.285Z,96262.09
2022-12-31T09:23:44.623Z,96243.91
2022-12-31T09:26:28.516Z,96216.19
2022-12-31T09:29:05.278Z,96204.28
2022-12-31T09:31:40.359Z,96264.34
2022-12-31T09:34:13.673Z,96263.84
2022-12-31T09:36:47.531Z,96178.41
2022-12-31T09:39:23.554Z,96256.38
2022-12-31T09:42:17.539Z,96180.81
2022-12-31T09:45:24.905Z,96241.56
2022-12-31T09:48:37.145Z,96241.78
2022-12-31T09:51:25.306Z,96135.19
2022-12-31T09:54:17.756Z,96187.34
2022-12-31T09:56:55.572Z,96251.34
2022-12-31T09:59:34.536Z,96254.91
2022-12-31T10:02:20.641Z,96237.31
2022-12-31T10:04:58.427Z,96222.22
2022-12-31T10:07:36.273Z,96204.03
2022-12-31T10:10:17.426Z,96245.72
2022-12-31T10:13:12.712Z,96192.56
2022-12-31T10:16:04.285Z,96251.13
2022-12-31T10:18:52.522Z,96152.06
2022-12-31T10:21:38.194Z,96241.41
2022-12-31T10:24:30.356Z,96142.56
2022-12-31T10:27:12.873Z,96245.16
2022-12-31T10:29:47.494Z,96149.16
2022-12-31T10:32:19.071Z,96236.81
2022-12-31T10:35:01.839Z,96235.66
2022-12-31T10:37:35.146Z,96233.25
2022-12-31T10:40:25.844Z,96221.25
2022-12-31T10:43:24.150Z,96230.91
2022-12-31T10:46:36.409Z,96198.47
2022-12-31T10:49:48.537Z,96231.16
2022-12-31T10:52:51.202Z,96228.13
2022-12-31T10:55:46.239Z,96225.44
2022-12-31T10:58:57.384Z,96198.59
2022-12-31T11:01:33.781Z,96223.19
2022-12-31T11:04:38.056Z,96220.34
2022-12-31T11:07:41.877Z,96217.78
2022-12-31T11:10:53.888Z,96214.66
2022-12-31T11:13:55.100Z,96201.84
2022-12-31T11:16:55.571Z,96223.19
2022-12-31T11:19:35.107Z,96208.06
2022-12-31T11:22:20.843Z,96224.78
2022-12-31T11:25:07.204Z,96208.00
2022-12-31T11:27:51.849Z,96189.59
2022-12-31T11:30:25.438Z,96209.44
2022-12-31T11:33:05.819Z,96200.41
2022-12-31T11:35:50.501Z,96206.19
2022-12-31T11:38:24.321Z,96192.91
2022-12-31T11:41:01.130Z,96198.31
2022-12-31T11:43:35.596Z,96184.09
2022-12-31T11:46:17.899Z,96179.28
2022-12-31T11:48:59.015Z,96179.97
2022-12-31T11:51:50.194Z,96177.63
2022-12-31T11:55:13.625Z,96171.78
2022-12-31T11:57:46.072Z,96174.78
2022-12-31T12:00:18.927Z,96092.81
2022-12-31T12:02:50.104Z,96149.66
2022-12-31T12:05:20.184Z,96161.31
2022-12-31T12:07:48.419Z,96161.97
2022-12-31T12:10:23.983Z,96163.72
2022-12-31T12:12:52.576Z,96164.03
2022-12-31T12:15:23.839Z,96159.06
2022-12-31T12:17:55.254Z,96165.50
2022-12-31T12:20:30.439Z,96158.16
2022-12-31T12:23:00.936Z,96168.09
2022-12-31T12:25:38.399Z,96168.59
2022-12-31T12:28:20.157Z,96160.59
2022-12-31T12:30:54.582Z,96166.41
2022-12-31T12:33:23.635Z,96164.84
2022-12-31T12:35:51.307Z,96105.38
2022-12-31T12:38:21.863Z,96171.69
2022-12-31T12:40:58.328Z,96166.81
2022-12-31T12:43:27.978Z,96169.00
2022-12-31T12:45:59.832Z,96163.97
2022-12-31T12:48:35.819Z,96165.84
2022-12-31T12:51:23.069Z,96158.88
2022-12-31T12:54:00.634Z,96160.59
2022-12-31T12:56:38.177Z,96141.25
2022-12-31T12:59:35.861Z,96160.59
2022-12-31T13:02:23.561Z,96165.91
2022-12-31T13:05:04.499Z,96159.81
2022-12-31T13:07:47.246Z,96159.00
2022-12-31T13:10:25.770Z,96159.63
2022-12-31T13:13:23.483Z,96168.81
2022-12-31T13:15:59.147Z,96159.41
2022-12-31T13:18:38.774Z,96165.34
2022-12-31T13:21:25.228Z,96141.25
2022-12-31T13:23:57.850Z,96138.41
2022-12-31T13:26:32.525Z,96079.31
2022-12-31T13:29:02.748Z,96148.44
2022-12-31T13:31:34.791Z,96120.22
2022-12-31T13:34:07.351Z,96123.16
2022-12-31T13:36:41.413Z,96141.19
2022-12-31T13:39:16.377Z,96136.28
2022-12-31T13:41:50.155Z,96153.16
2022-12-31T13:44:29.638Z,96132.00
2022-12-31T13:47:03.614Z,96151.44
2022-12-31T13:49:34.518Z,96154.22
2022-12-31T13:52:15.598Z,96150.09
2022-12-31T13:54:52.994Z,96153.06
2022-12-31T13:57:29.980Z,96156.00
2022-12-31T14:00:01.523Z,96147.69
2022-12-31T14:02:46.259Z,96150.31
2022-12-31T14:05:19.740Z,96141.28
2022-12-31T14:07:53.583Z,96144.75
2022-12-31T14:10:29.269Z,96153.81
2022-12-31T14:13:08.475Z,96154.53
2022-12-31T14:15:42.332Z,96167.94
2022-12-31T14:18:19.863Z,96163.41
2022-12-31T14:20:49.939Z,96163.63
2022-12-31T14:23:27.788Z,96148.34
2022-12-31T14:26:00.453Z,96177.22
2022-12-31T14:28:34.531Z,96174.97
2022-12-31T14:31:14.608Z,96090.00
2022-12-31T14:33:55.162Z,96175.84
2022-12-31T14:36:39.956Z,96168.84
2022-12-31T14:39:30.412Z,96183.50
2022-12-31T14:42:11.408Z,96167.88
2022-12-31T14:44:52.643Z,96205.81
2022-12-31T14:47:31.711Z,96202.38
2022-12-31T14:50:07.268Z,96200.59
2022-12-31T14:52:47.998Z,96182.50
2022-12-31T14:55:28.991Z,96206.56
2022-12-31T15:00:55.953Z,96204.88
2022-12-31T15:03:26.542Z,96192.28
2022-12-31T15:05:59.109Z,96193.16
2022-12-31T15:08:47.824Z,96192.88
2022-12-31T15:11:36.732Z,96188.16
2022-12-31T15:14:25.148Z,96189.59
2022-12-31T15:17:03.461Z,96190.53
2022-12-31T15:20:00.977Z,96192.56
2022-12-31T15:22:40.779Z,96187.34
2022-12-31T15:25:41.677Z,96187.84
2022-12-31T15:28:31.523Z,96188.44
2022-12-31T15:31:04.520Z,96194.63
2022-12-31T15:33:35.244Z,96200.72
2022-12-31T15:36:14.558Z,96203.19
2022-12-31T15:38:43.429Z,96220.41
2022-12-31T15:41:26.708Z,96214.66
2022-12-31T15:44:01.916Z,96213.72
2022-12-31T15:46:33.771Z,96214.00
2022-12-31T15:49:06.944Z,96199.94
2022-12-31T15:51:45.768Z,96211.59
2022-12-31T15:54:24.143Z,96206.41
2022-12-31T15:56:53.793Z,96206.97
2022-12-31T15:59:23.768Z,96206.47
2022-12-31T16:01:51.685Z,96199.75
2022-12-31T16:04:21.840Z,96217.19
2022-12-31T16:06:51.226Z,96223.34
2022-12-31T16:09:25.626Z,96216.25
2022-12-31T16:11:54.694Z,96220.28
2022-12-31T16:14:27.034Z,96226.91
2022-12-31T16:16:57.367Z,96225.06
2022-12-31T16:19:34.549Z,96218.47
2022-12-31T16:22:08.737Z,96183.63
2022-12-31T16:24:48.957Z,96216.22
2022-12-31T16:27:26.477Z,96214.06
2022-12-31T16:30:01.950Z,96217.00
2022-12-31T16:32:36.153Z,96217.09
2022-12-31T16:35:10.086Z,96216.78
2022-12-31T16:37:42.725Z,96167.41
2022-12-31T16:40:21.075Z,96221.91
2022-12-31T16:42:49.011Z,96149.34
2022-12-31T16:45:36.671Z,96206.06
2022-12-31T16:48:16.392Z,96215.06
2022-12-31T16:50:46.009Z,96220.06
2022-12-31T16:53:17.509Z,96183.03
2022-12-31T16:55:51.192Z,96189.13
2022-12-31T16:58:23.147Z,96225.97
2022-12-31T17:00:53.545Z,96222.59
2022-12-31T17:03:24.410Z,96225.22
2022-12-31T17:05:59.807Z,96159.75
2022-12-31T17:08:29.306Z,96226.00
2022-12-31T17:10:57.417Z,96230.75
2022-12-31T17:13:30.654Z,96226.28
2022-12-31T17:16:01.516Z,96169.50
2022-12-31T17:18:35.752Z,96222.34
2022-12-31T17:21:08.843Z,96216.34
2022-12-31T17:23:39.614Z,96211.06
2022-12-31T17:26:11.377Z,96190.34
2022-12-31T17:28:44.625Z,96192.38
2022-12-31T17:31:36.851Z,96206.69
2022-12-31T17:34:21.898Z,96211.66
2022-12-31T17:36:59.148Z,96200.03
2022-12-31T17:39:28.735Z,96204.00
2022-12-31T17:41:58.511Z,96162.22
2022-12-31T17:44:28.978Z,96182.47
2022-12-31T17:46:58.748Z,96202.47
2022-12-31T17:49:31.110Z,96144.72
2022-12-31T17:51:58.845Z,96209.16
2022-12-31T17:54:26.515Z,96212.81
2022-12-31T17:56:54.847Z,96209.97
2022-12-31T17:59:29.516Z,96207.34
2022-12-31T18:02:00.836Z,96188.97
2022-12-31T18:04:28.884Z,96202.59
2022-12-31T18:06:56.532Z,96192.69
2022-12-31T18:09:24.147Z,96189.16
2022-12-31T18:11:55.453Z,96177.13
2022-12-31T18:14:24.496Z,96197.59
2022-12-31T18:16:52.128Z,96179.31
2022-12-31T18:19:54.194Z,96116.28
2022-12-31T18:22:14.054Z,96197.03
2022-12-31T18:24:41.727Z,96157.63
2022-12-31T18:27:20.581Z,96187.16
2022-12-31T18:29:48.563Z,96201.91
2022-12-31T18:32:21.370Z,96125.38
2022-12-31T18:34:51.087Z,96207.69
2022-12-31T18:37:22.783Z,96150.91
2022-12-31T18:39:51.033Z,96145.09
2022-12-31T18:42:20.088Z,96211.97
2022-12-31T18:44:48.026Z,96224.38
2022-12-31T18:47:18.825Z,96234.38
2022-12-31T18:49:48.480Z,96180.97
2022-12-31T18:52:19.935Z,96232.84
2022-12-31T18:54:47.917Z,96224.41
2022-12-31T18:57:16.586Z,96228.06
2022-12-31T18:59:44.244Z,96227.56
2022-12-31T19:02:16.221Z,96158.38
2022-12-31T19:04:44.071Z,96247.59
2022-12-31T19:07:11.827Z,96149.69
2022-12-31T19:09:45.524Z,96269.72
2022-12-31T19:12:15.859Z,96264.97
2022-12-31T19:14:43.578Z,96258.38
2022-12-31T19:17:11.199Z,96214.94
2022-12-31T19:19:39.919Z,96223.63
2022-12-31T19:22:07.525Z,96273.38
2022-12-31T19:24:35.107Z,96269.94
2022-12-31T19:27:04.124Z,96279.19
2022-12-31T19:29:31.759Z,96279.72
2022-12-31T19:32:02.029Z,96274.44
2022-12-31T19:34:29.673Z,96284.72
2022-12-31T19:36:57.460Z,96292.09
2022-12-31T19:39:25.070Z,96290.25
2022-12-31T19:41:58.828Z,96296.03
2022-12-31T19:44:28.776Z,96287.06
2022-12-31T19:46:56.433Z,96288.84
2022-12-31T19:49:25.112Z,96297.56
2022-12-31T19:51:52.766Z,96276.78
2022-12-31T19:54:20.430Z,96294.97
2022-12-31T19:56:48.073Z,96315.28
2022-12-31T19:59:15.655Z,96312.41
2022-12-31T20:01:44.741Z,96249.72
2022-12-31T20:04:12.450Z,96310.56
2022-12-31T20:06:40.095Z,96278.44
2022-12-31T20:09:07.923Z,96306.34
2022-12-31T20:11:35.573Z,96310.81
2022-12-31T20:14:03.399Z,96306.88
2022-12-31T20:16:32.183Z,96306.63
2022-12-31T20:19:01.197Z,96263.13
2022-12-31T20:21:29.848Z,96313.94
2022-12-31T20:23:57.512Z,96319.78
2022-12-31T20:26:25.757Z,96302.66
2022-12-31T20:28:54.124Z,96265.00
2022-12-31T20:31:23.997Z,96317.69
2022-12-31T20:33:53.603Z,96286.84
2022-12-31T20:36:23.925Z,96329.28
2022-12-31T20:38:51.627Z,96259.19
2022-12-31T20:41:21.295Z,96295.28
2022-12-31T20:43:49.592Z,96323.47
2022-12-31T20:46:19.875Z,96316.06
2022-12-31T20:48:48.865Z,96315.03
2022-12-31T20:51:18.327Z,96302.41
2022-12-31T20:53:50.826Z,96314.00
2022-12-31T20:56:19.108Z,96303.97
2022-12-31T20:58:46.760Z,96316.63
2022-12-31T21:01:15.651Z,96315.06
2022-12-31T21:06:33.668Z,96310.84
2022-12-31T21:09:04.903Z,96275.25
2022-12-31T21:11:46.541Z,96267.63
2022-12-31T21:14:14.809Z,96282.88
2022-12-31T21:16:42.509Z,96288.66
2022-12-31T21:19:10.485Z,96299.44
2022-12-31T21:21:38.311Z,96297.84
2022-12-31T21:24:08.027Z,96301.28
2022-12-31T21:26:36.218Z,96301.28
2022-12-31T21:29:04.158Z,96303.09
2022-12-31T21:31:31.825Z,96307.03
2022-12-31T21:33:59.499Z,96306.03
2022-12-31T21:36:27.132Z,96311.31
2022-12-31T21:38:54.734Z,96300.03
2022-12-31T21:41:41.253Z,96311.88
2022-12-31T21:44:08.865Z,96329.00
2022-12-31T21:46:36.579Z,96305.56
2022-12-31T21:49:04.381Z,96278.69
2022-12-31T21:51:32.071Z,96320.78
2022-12-31T21:53:59.738Z,96313.66
2022-12-31T21:56:27.707Z,96314.69
2022-12-31T21:59:14.652Z,96317.06
2022-12-31T22:02:01.039Z,96317.56
2022-12-31T22:05:01.025Z,96277.53
2022-12-31T22:07:16.720Z,96303.28
2022-12-31T22:09:44.369Z,96243.00
2022-12-31T22:12:13.323Z,96303.78
2022-12-31T22:15:14.846Z,96313.84
2022-12-31T22:17:28.670Z,96311.00
2022-12-31T22:22:43.876Z,96320.50
2022-12-31T22:25:11.534Z,96311.56
2022-12-31T22:27:40.530Z,96319.47
2022-12-31T22:30:09.617Z,96308.72
2022-12-31T22:32:37.229Z,96244.97
2022-12-31T22:35:05.574Z,96322.94
2022-12-31T22:37:56.362Z,96309.22
2022-12-31T22:40:21.515Z,96327.41
2022-12-31T22:42:50.577Z,96300.28
2022-12-31T22:45:18.249Z,96289.75
2022-12-31T22:47:45.983Z,96317.66
2022-12-31T22:50:13.670Z,96303.44
2022-12-31T22:52:41.435Z,96311.88
2022-12-31T22:55:10.035Z,96315.53
2022-12-31T22:57:37.842Z,96295.00
2022-12-31T23:00:12.303Z,96308.72
2022-12-31T23:02:41.998Z,96323.72
2022-12-31T23:05:15.160Z,96315.81
2022-12-31T23:07:44.113Z,96235.44
2022-12-31T23:10:29.732Z,96296.59
2022-12-31T23:12:57.328Z,96261.03
2022-12-31T23:15:44.096Z,96308.19
2022-12-31T23:18:29.211Z,96307.94
2022-12-31T23:21:14.229Z,96293.44
2022-12-31T23:23:41.832Z,96288.19
2022-12-31T23:26:09.465Z,96309.50
2022-12-31T23:28:37.148Z,96251.28
2022-12-31T23:31:08.203Z,96306.59
2022-12-31T23:33:35.946Z,96237.06
2022-12-31T23:36:04.815Z,96186.25
2022-12-31T23:38:32.466Z,96292.91
2022-12-31T23:41:00.256Z,96276.84
2022-12-31T23:43:27.973Z,96291.84
2022-12-31T23:45:55.663Z,96297.94
2022-12-31T23:48:24.680Z,96185.44
2022-12-31T23:50:54.274Z,96224.41
2022-12-31T23:53:22.669Z,96289.50
2022-12-31T23:55:50.432Z,96212.81
2022-12-31T23:58:18.205Z,96315.00
